In Rescue
 
Open Full Screen Window  High Contrast Mode
Wind Gusting 00 knots
03
November 20, 2019 2:24 AM CST
Weather Information
Wind Direction
  250 °
Wind Speed
  03 kt (3 mph)
Wind Gust
  00 kt (0 mph)
Altimeter
29.98 in
Visibility
10 SM
Temperature
01° C
34° F
Dewpoint
00° C
32° F
Humidity
93%
1hr Rain Fall
00.00 in.
24hr Rain Fall
00.00 in.
Sky Condition
Missing
VFR

METAR KVWU 200824Z AUTO 25003KT 10SM 01/00 A2998 RMK AO2

FAA Disclaimer: The data displayed is for advisory purposes only and is not to be used for flight planning or operations.
Missing Cloud Data